createdAt,value
2023-02-27T00:00:04.004Z,99221.31
2023-02-27T00:02:37.993Z,99225.72
2023-02-27T00:15:27.946Z,99222.34
2023-02-27T00:18:08.006Z,99217.09
2023-02-27T00:20:41.296Z,99225.88
2023-02-27T00:23:14.957Z,99224.16
2023-02-27T00:25:48.332Z,99230.28
2023-02-27T00:28:21.960Z,99225.03
2023-02-27T00:41:33.990Z,99226.00
2023-02-27T00:44:07.224Z,99231.22
2023-02-27T00:46:41.060Z,99233.88
2023-02-27T00:49:14.359Z,99226.91
2023-02-27T00:51:47.942Z,99224.31
2023-02-27T00:54:21.234Z,99221.72
2023-02-27T00:56:56.965Z,99233.97
2023-02-27T01:10:07.186Z,99217.41
2023-02-27T01:12:42.269Z,99211.28
2023-02-27T01:15:16.956Z,99217.41
2023-02-27T01:17:50.369Z,99210.47
2023-02-27T01:20:23.972Z,99211.34
2023-02-27T01:22:57.243Z,99219.22
2023-02-27T01:35:46.924Z,99213.16
2023-02-27T01:38:26.982Z,99222.78
2023-02-27T01:41:00.702Z,99216.69
2023-02-27T01:43:33.961Z,99209.72
2023-02-27T01:46:09.224Z,99214.94
2023-02-27T02:01:43.950Z,99220.25
2023-02-27T02:04:26.201Z,99208.06
2023-02-27T02:07:10.954Z,99220.31
2023-02-27T02:09:52.312Z,99221.16
2023-02-27T02:12:38.632Z,99226.44
2023-02-27T02:15:12.265Z,99222.97
2023-02-27T02:18:00.975Z,99225.59
2023-02-27T02:28:20.912Z,99233.50
2023-02-27T02:31:49.118Z,99234.34
2023-02-27T02:35:21.240Z,99229.13
2023-02-27T02:38:47.977Z,99231.75
2023-02-27T02:41:41.548Z,99237.00
2023-02-27T02:55:03.905Z,99244.03
2023-02-27T02:57:54.957Z,99239.69
2023-02-27T03:00:35.013Z,99240.56
2023-02-27T03:03:24.943Z,99236.19
2023-02-27T03:06:05.133Z,99247.53
2023-02-27T03:22:39.984Z,99268.50
2023-02-27T03:25:16.731Z,99256.28
2023-02-27T03:30:46.437Z,99266.75
2023-02-27T03:33:36.956Z,99265.88
2023-02-27T03:36:21.730Z,99276.34
2023-02-27T03:49:18.908Z,99272.00
2023-02-27T03:51:58.938Z,99275.47
2023-02-27T03:54:40.739Z,99271.97
2023-02-27T03:57:20.944Z,99273.72
2023-02-27T03:59:54.386Z,99282.47
2023-02-27T04:02:28.958Z,99278.97
2023-02-27T04:16:03.950Z,99287.75
2023-02-27T04:18:57.124Z,99297.38
2023-02-27T04:21:49.604Z,99298.25
2023-02-27T04:24:35.608Z,99306.09
2023-02-27T04:27:32.948Z,99297.34
2023-02-27T04:44:14.889Z,99318.34
2023-02-27T04:46:58.956Z,99314.03
2023-02-27T04:49:39.468Z,99323.63
2023-02-27T04:52:27.904Z,99322.75
2023-02-27T04:55:12.850Z,99318.41
2023-02-27T04:58:08.920Z,99326.25
2023-02-27T05:08:38.892Z,99338.53
2023-02-27T05:11:30.898Z,99335.97
2023-02-27T05:14:14.891Z,99340.34
2023-02-27T05:17:04.904Z,99343.81
2023-02-27T05:19:41.919Z,99340.34
2023-02-27T05:22:35.141Z,99350.84
2023-02-27T05:35:56.940Z,99350.88
2023-02-27T05:38:38.134Z,99357.03
2023-02-27T05:41:23.906Z,99347.41
2023-02-27T05:44:05.831Z,99347.41
2023-02-27T05:46:53.928Z,99349.16
2023-02-27T06:02:31.910Z,99376.22
2023-02-27T06:05:13.937Z,99382.38
2023-02-27T06:07:47.171Z,99376.25
2023-02-27T06:10:23.895Z,99377.97
2023-02-27T06:12:57.128Z,99392.81
2023-02-27T06:15:30.927Z,99387.59
2023-02-27T06:18:06.192Z,99398.91
2023-02-27T06:30:53.941Z,99398.00
2023-02-27T06:33:35.913Z,99390.13
2023-02-27T06:36:09.203Z,99401.47
2023-02-27T06:38:42.892Z,99401.47
2023-02-27T06:41:16.220Z,99398.00
2023-02-27T06:43:49.909Z,99399.72
2023-02-27T06:57:08.897Z,99408.44
2023-02-27T06:59:42.176Z,99400.53
2023-02-27T07:02:16.891Z,99411.00
2023-02-27T07:04:50.202Z,99404.88
2023-02-27T07:07:34.896Z,99408.38
2023-02-27T07:24:14.870Z,99411.84
2023-02-27T07:26:54.874Z,99403.13
2023-02-27T07:29:28.162Z,99406.59
2023-02-27T07:32:02.146Z,99415.31
2023-02-27T07:34:35.126Z,99420.56
2023-02-27T07:37:08.910Z,99413.56
2023-02-27T07:50:20.885Z,99413.50
2023-02-27T07:52:54.150Z,99418.72
2023-02-27T07:55:27.891Z,99422.19
2023-02-27T07:58:01.123Z,99423.91
2023-02-27T08:00:34.876Z,99433.50
2023-02-27T08:03:08.363Z,99436.13
2023-02-27T08:15:58.899Z,99436.09
2023-02-27T08:18:38.919Z,99448.28
2023-02-27T08:21:12.105Z,99451.78
2023-02-27T08:23:45.910Z,99446.53
2023-02-27T08:26:19.424Z,99444.78
2023-02-27T08:28:52.891Z,99450.03
2023-02-27T08:31:28.142Z,99450.03
2023-02-27T08:43:31.848Z,99460.47
2023-02-27T08:46:11.887Z,99474.41
2023-02-27T08:48:47.110Z,99476.13
2023-02-27T08:51:20.884Z,99470.84
2023-02-27T08:53:54.283Z,99480.44
2023-02-27T08:56:28.261Z,99476.91
2023-02-27T09:09:40.863Z,99471.66
2023-02-27T09:12:14.238Z,99479.50
2023-02-27T09:14:47.870Z,99477.72
2023-02-27T09:17:21.172Z,99471.59
2023-02-27T09:19:57.226Z,99473.31
2023-02-27T09:22:31.464Z,99481.13
2023-02-27T09:36:04.877Z,99481.00
2023-02-27T09:38:47.691Z,99473.13
2023-02-27T09:41:42.259Z,99477.44
2023-02-27T09:44:46.257Z,99482.63
2023-02-27T09:47:28.643Z,99477.28
2023-02-27T09:50:13.859Z,99484.19
2023-02-27T09:52:47.324Z,99483.25
2023-02-27T10:02:56.039Z,99491.75
2023-02-27T10:05:46.274Z,99493.50
2023-02-27T10:08:38.871Z,99493.47
2023-02-27T10:11:18.479Z,99497.81
2023-02-27T10:14:11.872Z,99497.81
2023-02-27T10:16:50.181Z,99504.81
2023-02-27T10:29:47.828Z,99510.00
2023-02-27T10:32:33.881Z,99513.50
2023-02-27T10:35:20.648Z,99513.50
2023-02-27T10:38:05.884Z,99509.06
2023-02-27T10:40:41.571Z,99501.19
2023-02-27T10:43:17.088Z,99502.09
2023-02-27T10:56:32.846Z,99492.56
2023-02-27T10:59:20.203Z,99506.56
2023-02-27T11:02:02.862Z,99503.06
2023-02-27T11:04:39.664Z,99496.09
2023-02-27T11:07:20.837Z,99486.47
2023-02-27T11:10:05.209Z,99494.31
2023-02-27T11:12:47.861Z,99484.66
2023-02-27T11:23:11.803Z,99481.97
2023-02-27T11:25:52.844Z,99490.69
2023-02-27T11:28:30.084Z,99485.41
2023-02-27T11:31:13.885Z,99495.84
2023-02-27T11:33:54.054Z,99486.22
2023-02-27T11:36:47.877Z,99483.56
2023-02-27T11:50:40.841Z,99486.94
2023-02-27T11:53:37.853Z,99484.34
2023-02-27T11:56:24.847Z,99482.56
2023-02-27T11:59:05.870Z,99487.84
2023-02-27T12:01:55.840Z,99482.63
2023-02-27T12:18:38.849Z,99488.81
2023-02-27T12:21:25.840Z,99483.50
2023-02-27T12:24:09.835Z,99480.84
2023-02-27T12:26:52.838Z,99478.19
2023-02-27T12:29:35.915Z,99479.84
2023-02-27T12:32:28.927Z,99482.41
2023-02-27T12:46:37.646Z,99477.81
2023-02-27T12:49:34.494Z,99483.00
2023-02-27T12:52:30.831Z,99479.44
2023-02-27T12:55:14.960Z,99479.41
2023-02-27T12:58:27.821Z,99482.00
2023-02-27T13:11:57.841Z,99477.34
2023-02-27T13:14:46.012Z,99477.31
2023-02-27T13:17:39.829Z,99485.16
2023-02-27T13:20:29.820Z,99482.56
2023-02-27T13:23:25.832Z,99479.03
2023-02-27T13:37:01.835Z,99489.69
2023-02-27T13:39:53.660Z,99481.91
2023-02-27T13:43:06.848Z,99479.38
2023-02-27T13:45:51.667Z,99482.94
2023-02-27T13:48:59.064Z,99472.56
2023-02-27T13:51:45.817Z,99477.91
2023-02-27T14:04:53.783Z,99489.47
2023-02-27T14:07:58.817Z,99489.53
2023-02-27T14:10:35.562Z,99494.78
2023-02-27T14:14:00.708Z,99488.66
2023-02-27T14:17:00.108Z,99493.09
2023-02-27T14:30:34.784Z,99490.56
2023-02-27T14:33:40.159Z,99494.94
2023-02-27T14:36:18.945Z,99499.34
2023-02-27T14:39:02.813Z,99499.41
2023-02-27T14:41:46.581Z,99505.50
2023-02-27T14:58:21.812Z,99509.03
2023-02-27T15:01:06.239Z,99518.66
2023-02-27T15:03:51.856Z,99514.28
2023-02-27T15:06:36.144Z,99536.16
2023-02-27T15:09:29.804Z,99525.66
2023-02-27T15:12:04.923Z,99521.28
2023-02-27T15:24:56.337Z,99539.75
2023-02-27T15:27:36.804Z,99539.75
2023-02-27T15:30:21.693Z,99545.00
2023-02-27T15:33:01.820Z,99543.25
2023-02-27T15:35:37.661Z,99548.53
2023-02-27T15:38:10.804Z,99549.41
2023-02-27T15:51:23.829Z,99558.22
2023-02-27T15:54:00.200Z,99557.31
2023-02-27T15:56:41.476Z,99556.47
2023-02-27T15:59:18.492Z,99560.84
2023-02-27T16:01:59.802Z,99560.84
2023-02-27T16:18:39.769Z,99574.03
2023-02-27T16:21:21.821Z,99579.25
2023-02-27T16:24:18.499Z,99585.38
2023-02-27T16:26:59.792Z,99590.63
2023-02-27T16:29:36.495Z,99588.00
2023-02-27T16:32:30.832Z,99600.28
2023-02-27T16:44:42.902Z,99604.78
2023-02-27T16:47:16.060Z,99603.91
2023-02-27T16:49:49.816Z,99608.28
2023-02-27T16:52:23.109Z,99602.19
2023-02-27T16:54:56.779Z,99607.44
2023-02-27T16:57:30.020Z,99607.44
2023-02-27T17:10:59.754Z,99615.31
2023-02-27T17:13:40.779Z,99623.16
2023-02-27T17:16:15.377Z,99625.78
2023-02-27T17:18:48.811Z,99622.25
2023-02-27T17:21:22.111Z,99621.38
2023-02-27T17:23:55.785Z,99622.25
2023-02-27T17:37:46.777Z,99635.38
2023-02-27T17:40:20.180Z,99644.16
2023-02-27T17:42:53.777Z,99635.41
2023-02-27T17:45:27.212Z,99638.06
2023-02-27T17:48:00.795Z,99638.06
2023-02-27T17:50:33.992Z,99639.81
2023-02-27T17:53:08.792Z,99638.06
2023-02-27T18:06:20.023Z,99640.69
2023-02-27T18:08:54.979Z,99644.19
2023-02-27T18:11:28.773Z,99645.06
2023-02-27T18:14:02.104Z,99644.19
2023-02-27T18:16:35.775Z,99641.59
2023-02-27T18:19:09.508Z,99641.56
2023-02-27T18:31:59.775Z,99646.84
2023-02-27T18:34:39.765Z,99644.22
2023-02-27T18:37:13.000Z,99649.47
2023-02-27T18:39:39.744Z,99641.59
2023-02-27T18:42:19.778Z,99642.47
2023-02-27T18:44:53.009Z,99645.09
2023-02-27T18:47:29.938Z,99645.97
2023-02-27T18:58:00.722Z,99644.22
2023-02-27T19:00:40.780Z,99647.72
2023-02-27T19:03:18.511Z,99645.13
2023-02-27T19:05:51.791Z,99657.38
2023-02-27T19:08:25.473Z,99650.38
2023-02-27T19:10:59.449Z,99650.38
2023-02-27T19:13:33.024Z,99648.63
2023-02-27T19:26:22.737Z,99649.53
2023-02-27T19:29:02.741Z,99654.78
2023-02-27T19:31:36.096Z,99658.28
2023-02-27T19:34:09.803Z,99658.28
2023-02-27T19:36:46.044Z,99659.16
2023-02-27T19:52:16.769Z,99669.66
2023-02-27T19:54:50.039Z,99672.31
2023-02-27T19:57:23.732Z,99675.81
2023-02-27T19:59:57.276Z,99679.31
2023-02-27T20:02:30.743Z,99672.31
2023-02-27T20:05:04.969Z,99689.81
2023-02-27T20:07:40.764Z,99684.56
2023-02-27T20:18:10.724Z,99687.25
2023-02-27T20:20:50.758Z,99683.72
2023-02-27T20:23:25.977Z,99685.47
2023-02-27T20:25:58.742Z,99686.34
2023-02-27T20:28:32.016Z,99687.22
2023-02-27T20:31:05.769Z,99686.34
2023-02-27T20:33:39.187Z,99684.59
2023-02-27T20:46:33.715Z,99681.97
2023-02-27T20:49:14.724Z,99681.09
2023-02-27T20:51:47.966Z,99684.59
2023-02-27T20:54:22.722Z,99693.34
2023-02-27T20:56:56.376Z,99690.72
2023-02-27T21:13:11.742Z,99688.97
2023-02-27T21:15:45.811Z,99696.84
2023-02-27T21:18:19.978Z,99696.84
2023-02-27T21:20:52.954Z,99702.09
2023-02-27T21:23:26.761Z,99687.25
2023-02-27T21:26:00.053Z,99695.13
2023-02-27T21:28:35.713Z,99696.84
2023-02-27T21:38:32.700Z,99695.09
2023-02-27T21:41:13.737Z,99693.38
2023-02-27T21:43:48.921Z,99696.88
2023-02-27T21:46:22.755Z,99691.66
2023-02-27T21:48:56.104Z,99696.00
2023-02-27T21:51:40.148Z,99695.16
2023-02-27T21:54:17.280Z,99695.16
2023-02-27T22:07:21.689Z,99705.69
2023-02-27T22:10:01.753Z,99699.59
2023-02-27T22:12:35.164Z,99694.34
2023-02-27T22:15:08.737Z,99703.09
2023-02-27T22:17:42.016Z,99703.09
2023-02-27T22:34:00.746Z,99709.25
2023-02-27T22:36:35.847Z,99708.38
2023-02-27T22:39:10.717Z,99712.75
2023-02-27T22:41:44.224Z,99713.63
2023-02-27T22:44:20.728Z,99709.25
2023-02-27T22:46:55.479Z,99706.63
2023-02-27T22:59:01.680Z,99714.50
2023-02-27T23:01:43.752Z,99707.50
2023-02-27T23:04:17.907Z,99708.38
2023-02-27T23:06:53.715Z,99716.25
2023-02-27T23:09:27.024Z,99704.88
2023-02-27T23:12:05.708Z,99711.88
2023-02-27T23:25:33.379Z,99718.03
2023-02-27T23:28:07.815Z,99725.91
2023-02-27T23:30:40.699Z,99726.78
2023-02-27T23:33:13.962Z,99724.16
2023-02-27T23:35:47.786Z,99723.28
2023-02-27T23:38:21.282Z,99724.16
2023-02-27T23:54:36.757Z,99720.69
2023-02-27T23:57:09.992Z,99726.78
2023-02-27T23:59:43.736Z,99730.31
